Time;durP1;ratioP1;P1;durP2;ratioP2;P2;SDS_P1;SDS_P2;PMS_P1;PMS_P2;Temp;Humidity;BMP_temperature;BMP_pressure;BME280_temperature;BME280_humidity;BME280_pressure;Samples;Min_cycle;Max_cycle;Signal;HPM_P1;HPM_P2
2023/07/20 00:01:58;;;;;;;23.23;14.07;;;;;;;;;;5072001;28;20040;-51
2023/07/20 00:04:24;;;;;;;22.98;13.45;;;;;;;;;;5053521;28;20062;-52
2023/07/20 00:06:50;;;;;;;21.13;13.40;;;;;;;;;;5072002;28;20438;-52
2023/07/20 00:09:16;;;;;;;23.08;14.07;;;;;;;;;;5071778;28;20040;-56
2023/07/20 00:11:48;;;;;;;21.50;13.60;;;;;;;;;;5071871;28;20020;-50
2023/07/20 00:14:15;;;;;;;25.58;13.45;;;;;;;;;;5071060;28;20044;-53
2023/07/20 00:16:41;;;;;;;23.50;13.68;;;;;;;;;;5071931;28;20028;-52
2023/07/20 00:19:08;;;;;;;21.88;14.15;;;;;;;;;;5072804;28;20028;-54
2023/07/20 00:21:34;;;;;;;24.30;14.32;;;;;;;;;;5071845;28;20439;-53
2023/07/20 00:24:00;;;;;;;30.25;15.05;;;;;;;;;;5071406;28;20445;-57
2023/07/20 00:26:26;;;;;;;21.27;14.20;;;;;;;;;;5071496;28;20058;-55
2023/07/20 00:28:52;;;;;;;22.20;14.05;;;;;;;;;;5071809;28;20472;-55
2023/07/20 00:31:18;;;;;;;21.92;13.25;;;;;;;;;;5071872;28;20033;-55
2023/07/20 00:33:44;;;;;;;22.05;13.85;;;;;;;;;;5053842;28;20028;-57
2023/07/20 00:36:10;;;;;;;24.50;14.13;;;;;;;;;;5071807;28;20025;-57
2023/07/20 00:38:36;;;;;;;22.15;13.48;;;;;;;;;;5072108;28;20392;-52
2023/07/20 00:41:02;;;;;;;22.63;14.32;;;;;;;;;;5054043;28;20025;-57
2023/07/20 00:43:28;;;;;;;24.17;14.82;;;;;;;;;;5054462;28;20488;-55
2023/07/20 00:45:54;;;;;;;22.73;13.73;;;;;;;;;;5071350;28;20036;-55
2023/07/20 00:48:20;;;;;;;24.13;15.25;;;;;;;;;;5071574;28;20029;-54
2023/07/20 00:50:48;;;;;;;21.20;13.98;;;;;;;;;;5071647;28;20024;-57
2023/07/20 00:53:14;;;;;;;25.97;15.57;;;;;;;;;;5071693;28;20021;-51
2023/07/20 00:55:40;;;;;;;23.67;15.73;;;;;;;;;;5074827;28;20046;-54
2023/07/20 00:58:06;;;;;;;23.80;15.65;;;;;;;;;;5075834;28;20564;-56
2023/07/20 01:00:33;;;;;;;26.63;16.02;;;;;;;;;;5075777;28;20081;-57
2023/07/20 01:02:59;;;;;;;24.00;15.93;;;;;;;;;;5075677;28;20370;-53
2023/07/20 01:05:40;;;;;;;23.48;16.02;;;;;;;;;;5074702;28;20041;-52
2023/07/20 01:08:35;;;;;;;26.42;15.82;;;;;;;;;;5075407;28;20062;-52
2023/07/20 01:11:12;;;;;;;24.50;15.90;;;;;;;;;;5020877;28;20042;-53
2023/07/20 01:13:38;;;;;;;24.52;16.23;;;;;;;;;;5075442;28;20029;-54
2023/07/20 01:16:04;;;;;;;23.70;15.60;;;;;;;;;;5074728;28;20021;-53
2023/07/20 01:18:30;;;;;;;24.52;16.33;;;;;;;;;;5075487;28;20082;-56
2023/07/20 01:21:00;;;;;;;24.40;14.98;;;;;;;;;;5075406;28;20029;-57
2023/07/20 01:23:41;;;;;;;25.02;15.30;;;;;;;;;;5075499;28;20025;-52
2023/07/20 01:26:06;;;;;;;22.77;14.15;;;;;;;;;;5074602;28;20385;-57
2023/07/20 01:28:45;;;;;;;26.55;14.90;;;;;;;;;;5075346;28;20021;-53
2023/07/20 01:31:22;;;;;;;21.13;14.43;;;;;;;;;;5075638;28;20520;-56
2023/07/20 01:33:49;;;;;;;22.10;15.57;;;;;;;;;;5075136;28;20036;-55
2023/07/20 01:36:17;;;;;;;22.25;14.25;;;;;;;;;;5074924;28;20035;-52
2023/07/20 01:38:43;;;;;;;22.83;15.15;;;;;;;;;;5075192;28;20021;-57
2023/07/20 01:41:10;;;;;;;22.75;15.25;;;;;;;;;;5075419;28;20377;-57
2023/07/20 01:43:36;;;;;;;22.67;14.75;;;;;;;;;;5075081;28;20512;-52
2023/07/20 01:46:02;;;;;;;23.77;14.77;;;;;;;;;;5056124;28;20039;-52
2023/07/20 01:48:28;;;;;;;27.13;15.43;;;;;;;;;;5074641;28;20025;-51
2023/07/20 01:50:54;;;;;;;22.33;14.25;;;;;;;;;;5074534;28;20032;-51
2023/07/20 01:53:21;;;;;;;24.05;15.52;;;;;;;;;;5074678;28;20017;-51
2023/07/20 01:55:47;;;;;;;23.55;14.88;;;;;;;;;;5073593;28;20099;-57
2023/07/20 01:58:13;;;;;;;24.73;15.20;;;;;;;;;;5074388;28;20025;-53
2023/07/20 02:00:39;;;;;;;22.27;14.93;;;;;;;;;;5074387;28;20040;-51
2023/07/20 02:03:05;;;;;;;25.27;15.77;;;;;;;;;;5074462;28;20035;-53
2023/07/20 02:05:31;;;;;;;23.17;15.50;;;;;;;;;;5073558;28;20024;-54
2023/07/20 02:07:57;;;;;;;24.13;15.15;;;;;;;;;;5060314;28;20489;-53
2023/07/20 02:10:23;;;;;;;29.27;15.40;;;;;;;;;;5073946;28;20107;-52
2023/07/20 02:12:49;;;;;;;26.23;15.75;;;;;;;;;;5074049;28;20017;-52
2023/07/20 02:15:16;;;;;;;22.95;15.00;;;;;;;;;;5073282;28;20040;-54
2023/07/20 02:17:42;;;;;;;40.95;36.70;;;;;;;;;;5074176;28;20071;-56
2023/07/20 02:20:10;;;;;;;50.70;45.72;;;;;;;;;;5074125;28;20115;-52
2023/07/20 02:22:36;;;;;;;44.75;40.85;;;;;;;;;;5073921;28;20031;-56
2023/07/20 02:25:03;;;;;;;32.88;30.48;;;;;;;;;;5073199;28;20024;-57
2023/07/20 02:27:29;;;;;;;30.13;27.73;;;;;;;;;;5073783;28;20055;-56
2023/07/20 02:29:55;;;;;;;29.40;27.10;;;;;;;;;;5073835;28;20016;-57
2023/07/20 02:32:21;;;;;;;29.27;26.98;;;;;;;;;;5073857;28;20020;-57
2023/07/20 02:34:47;;;;;;;29.67;27.38;;;;;;;;;;5072897;28;20392;-58
2023/07/20 02:37:13;;;;;;;27.60;25.40;;;;;;;;;;5073647;28;20089;-55
2023/07/20 02:39:39;;;;;;;28.30;26.10;;;;;;;;;;5073697;28;20052;-56
2023/07/20 02:42:06;;;;;;;27.75;25.55;;;;;;;;;;5073528;28;20025;-55
2023/07/20 02:44:32;;;;;;;27.95;25.75;;;;;;;;;;5072716;28;20032;-57
2023/07/20 02:46:58;;;;;;;28.10;25.90;;;;;;;;;;5073623;28;20476;-57
2023/07/20 02:49:23;;;;;;;27.60;25.40;;;;;;;;;;5073365;28;20040;-56
2023/07/20 02:51:49;;;;;;;28.20;26.00;;;;;;;;;;5073540;28;20055;-57
2023/07/20 02:54:15;;;;;;;28.48;26.02;;;;;;;;;;5072702;28;20036;-57
2023/07/20 02:56:41;;;;;;;27.90;25.70;;;;;;;;;;5073201;28;20040;-54
2023/07/20 02:59:08;;;;;;;28.08;25.88;;;;;;;;;;5073169;28;20021;-55
2023/07/20 03:01:34;;;;;;;27.80;25.60;;;;;;;;;;5072964;28;20050;-57
2023/07/20 03:04:00;;;;;;;28.13;25.92;;;;;;;;;;5072529;28;20028;-57
2023/07/20 03:06:26;;;;;;;28.63;26.42;;;;;;;;;;5072976;28;20070;-57
2023/07/20 03:08:53;;;;;;;30.10;27.80;;;;;;;;;;5072795;28;20385;-55
2023/07/20 03:11:20;;;;;;;20.15;18.25;;;;;;;;;;5072994;28;20012;-54
2023/07/20 03:13:46;;;;;;;25.30;23.20;;;;;;;;;;5072945;28;20895;-54
2023/07/20 03:16:15;;;;;;;31.17;24.67;;;;;;;;;;5071833;28;20032;-55
2023/07/20 03:18:41;;;;;;;26.30;24.20;;;;;;;;;;5072626;28;20084;-56
2023/07/20 03:21:11;;;;;;;26.65;24.55;;;;;;;;;;5073001;28;20111;-57
2023/07/20 03:23:37;;;;;;;28.52;26.25;;;;;;;;;;5072714;28;20017;-57
2023/07/20 03:26:03;;;;;;;27.33;25.13;;;;;;;;;;5072105;28;20024;-58
2023/07/20 03:28:29;;;;;;;28.15;25.88;;;;;;;;;;5063698;28;20514;-54
2023/07/20 03:30:55;;;;;;;27.25;25.05;;;;;;;;;;5062803;28;20028;-56
2023/07/20 03:33:29;;;;;;;27.90;25.70;;;;;;;;;;5072519;28;20028;-55
2023/07/20 03:35:55;;;;;;;26.73;24.63;;;;;;;;;;5071682;28;20488;-57
2023/07/20 03:38:22;;;;;;;26.80;24.70;;;;;;;;;;5067212;28;20665;-56
2023/07/20 03:40:51;;;;;;;26.65;24.55;;;;;;;;;;5072442;28;20046;-55
2023/07/20 03:43:17;;;;;;;26.90;24.80;;;;;;;;;;5072297;28;20073;-55
2023/07/20 03:45:43;;;;;;;26.05;23.95;;;;;;;;;;5071367;28;20027;-56
2023/07/20 03:48:09;;;;;;;25.33;23.23;;;;;;;;;;5072220;28;20024;-54
2023/07/20 03:50:35;;;;;;;25.90;23.80;;;;;;;;;;5072134;28;20021;-52
2023/07/20 03:53:01;;;;;;;26.55;24.45;;;;;;;;;;5072278;28;20023;-54
2023/07/20 03:55:28;;;;;;;26.55;24.45;;;;;;;;;;5071409;28;20427;-59
2023/07/20 03:57:54;;;;;;;26.13;24.02;;;;;;;;;;5071994;28;20024;-55
2023/07/20 04:00:20;;;;;;;26.00;23.90;;;;;;;;;;5072146;28;20021;-57
2023/07/20 04:02:46;;;;;;;25.90;23.80;;;;;;;;;;5071887;28;20040;-57
2023/07/20 04:05:12;;;;;;;26.50;24.40;;;;;;;;;;5071170;28;20028;-58
2023/07/20 04:07:38;;;;;;;27.00;24.80;;;;;;;;;;5071602;28;20400;-53
2023/07/20 04:10:05;;;;;;;27.63;25.42;;;;;;;;;;5071833;28;20028;-58
2023/07/20 04:12:31;;;;;;;28.05;25.88;;;;;;;;;;5071702;28;20114;-58
2023/07/20 04:14:57;;;;;;;28.23;26.02;;;;;;;;;;5071139;28;20017;-56
2023/07/20 04:17:23;;;;;;;27.42;25.33;;;;;;;;;;5071964;28;20028;-57
2023/07/20 04:19:49;;;;;;;27.60;25.48;;;;;;;;;;5072031;28;20032;-55
2023/07/20 04:22:15;;;;;;;27.45;25.27;;;;;;;;;;5071860;28;20025;-58
2023/07/20 04:24:42;;;;;;;27.10;25.00;;;;;;;;;;5071041;28;20108;-57
2023/07/20 04:27:08;;;;;;;26.00;23.90;;;;;;;;;;5071918;28;20036;-57
2023/07/20 04:29:34;;;;;;;26.48;24.38;;;;;;;;;;5070832;28;20037;-54
2023/07/20 04:32:00;;;;;;;26.70;24.60;;;;;;;;;;5072090;28;20064;-57
2023/07/20 04:34:26;;;;;;;27.77;25.38;;;;;;;;;;5070962;28;20023;-58
2023/07/20 04:36:52;;;;;;;27.70;25.50;;;;;;;;;;5071730;28;20025;-58
2023/07/20 04:39:18;;;;;;;29.27;26.98;;;;;;;;;;5071746;28;20531;-55
2023/07/20 04:41:43;;;;;;;28.98;26.77;;;;;;;;;;5071411;28;20033;-57
2023/07/20 04:44:10;;;;;;;27.98;25.77;;;;;;;;;;5070780;28;20029;-57
2023/07/20 04:46:36;;;;;;;26.30;24.20;;;;;;;;;;5071775;28;20496;-57
2023/07/20 04:49:02;;;;;;;26.80;24.70;;;;;;;;;;5071443;28;20029;-57
2023/07/20 04:51:30;;;;;;;27.80;25.58;;;;;;;;;;5071486;28;20409;-57
2023/07/20 04:53:56;;;;;;;26.60;24.48;;;;;;;;;;5071024;28;20104;-55
2023/07/20 04:56:23;;;;;;;26.70;24.60;;;;;;;;;;5071542;28;20025;-55
2023/07/20 04:58:49;;;;;;;26.42;24.33;;;;;;;;;;5071506;28;20119;-57
2023/07/20 05:01:15;;;;;;;26.88;24.77;;;;;;;;;;5071174;28;20404;-57
2023/07/20 05:03:41;;;;;;;26.67;24.58;;;;;;;;;;5071477;28;20025;-58
2023/07/20 05:06:07;;;;;;;27.45;25.25;;;;;;;;;;5070775;28;20024;-58
2023/07/20 05:08:33;;;;;;;26.40;24.30;;;;;;;;;;5070829;28;20044;-55
2023/07/20 05:11:00;;;;;;;27.00;24.90;;;;;;;;;;5071181;28;20535;-56
2023/07/20 05:13:26;;;;;;;27.50;25.20;;;;;;;;;;5071155;28;20031;-56
2023/07/20 05:15:53;;;;;;;26.48;24.38;;;;;;;;;;5070560;28;20032;-56
2023/07/20 05:18:20;;;;;;;27.50;25.30;;;;;;;;;;5071104;28;20013;-57
2023/07/20 05:20:49;;;;;;;28.10;25.90;;;;;;;;;;5071029;28;20028;-57
2023/07/20 05:23:18;;;;;;;28.50;26.30;;;;;;;;;;5071166;28;20032;-56
2023/07/20 05:25:44;;;;;;;27.58;25.38;;;;;;;;;;5070419;28;20035;-56
2023/07/20 05:28:10;;;;;;;28.23;26.02;;;;;;;;;;5069539;28;20123;-57
2023/07/20 05:30:36;;;;;;;27.33;25.23;;;;;;;;;;5070893;28;20093;-51
2023/07/20 05:33:02;;;;;;;26.45;24.35;;;;;;;;;;5069767;28;20024;-55
2023/07/20 05:35:28;;;;;;;25.15;23.15;;;;;;;;;;5070120;28;20435;-57
2023/07/20 05:37:54;;;;;;;23.25;21.33;;;;;;;;;;5070776;28;20024;-55
2023/07/20 05:40:20;;;;;;;21.75;19.70;;;;;;;;;;5071020;28;20322;-58
2023/07/20 05:42:48;;;;;;;18.30;16.50;;;;;;;;;;5074382;28;20025;-57
2023/07/20 05:45:15;;;;;;;18.08;16.38;;;;;;;;;;5072215;28;20032;-58
2023/07/20 05:47:42;;;;;;;19.52;16.23;;;;;;;;;;5073993;28;20035;-58
2023/07/20 05:50:09;;;;;;;17.20;15.50;;;;;;;;;;5074146;28;20477;-58
2023/07/20 05:52:35;;;;;;;17.00;15.30;;;;;;;;;;5073935;28;20016;-57
2023/07/20 05:55:00;;;;;;;18.20;16.40;;;;;;;;;;5073417;28;20395;-57
2023/07/20 05:57:26;;;;;;;16.38;14.68;;;;;;;;;;5073861;28;20107;-58
2023/07/20 05:59:52;;;;;;;16.08;14.38;;;;;;;;;;5073984;28;20024;-57
2023/07/20 06:02:18;;;;;;;16.10;14.40;;;;;;;;;;5073876;28;20133;-56
2023/07/20 06:04:44;;;;;;;15.85;14.15;;;;;;;;;;5073440;28;20048;-57
2023/07/20 06:07:11;;;;;;;15.30;13.68;;;;;;;;;;5073830;28;20024;-57
2023/07/20 06:09:37;;;;;;;14.30;10.85;;;;;;;;;;5073884;28;20028;-54
2023/07/20 06:12:03;;;;;;;14.98;9.88;;;;;;;;;;5055848;28;20473;-58
2023/07/20 06:14:29;;;;;;;11.93;7.00;;;;;;;;;;5072965;28;20461;-56
2023/07/20 06:16:55;;;;;;;11.25;6.60;;;;;;;;;;5073907;28;20043;-57
2023/07/20 06:19:22;;;;;;;11.63;6.90;;;;;;;;;;5057003;28;20408;-56
2023/07/20 06:21:49;;;;;;;11.75;7.07;;;;;;;;;;5073105;28;20055;-56
2023/07/20 06:24:15;;;;;;;11.10;6.50;;;;;;;;;;5072729;28;20039;-54
2023/07/20 06:26:41;;;;;;;11.70;7.00;;;;;;;;;;5073687;28;20024;-57
2023/07/20 06:29:07;;;;;;;11.15;6.72;;;;;;;;;;5073235;28;20035;-58
2023/07/20 06:31:34;;;;;;;11.95;7.65;;;;;;;;;;5073290;28;20033;-57
2023/07/20 06:34:00;;;;;;;10.77;6.35;;;;;;;;;;5072927;28;20020;-54
2023/07/20 06:36:27;;;;;;;11.52;7.13;;;;;;;;;;5073094;28;20127;-56
2023/07/20 06:38:53;;;;;;;10.35;6.10;;;;;;;;;;5072814;28;20020;-57
2023/07/20 06:41:19;;;;;;;10.32;6.10;;;;;;;;;;5073491;28;20416;-57
2023/07/20 06:43:45;;;;;;;10.25;6.05;;;;;;;;;;5069910;28;20625;-57
2023/07/20 06:46:11;;;;;;;10.30;6.00;;;;;;;;;;5070789;28;20017;-58
2023/07/20 06:48:37;;;;;;;9.10;5.40;;;;;;;;;;5073654;28;20095;-52
2023/07/20 06:51:03;;;;;;;9.20;5.50;;;;;;;;;;5072658;28;20112;-51
2023/07/20 06:53:30;;;;;;;9.02;5.53;;;;;;;;;;5040112;28;20021;-51
2023/07/20 06:55:59;;;;;;;9.15;5.40;;;;;;;;;;5059089;28;20067;-53
2023/07/20 06:58:25;;;;;;;11.93;6.32;;;;;;;;;;5072837;28;20058;-52
2023/07/20 07:00:51;;;;;;;8.30;5.00;;;;;;;;;;5072872;28;20028;-54
2023/07/20 07:03:17;;;;;;;8.25;4.95;;;;;;;;;;5054642;28;20029;-54
2023/07/20 07:05:45;;;;;;;8.10;4.88;;;;;;;;;;5072225;28;20496;-53
2023/07/20 07:08:11;;;;;;;8.20;4.83;;;;;;;;;;5054482;28;20447;-56
2023/07/20 07:10:37;;;;;;;8.20;4.90;;;;;;;;;;5072616;28;20104;-61
2023/07/20 07:13:04;;;;;;;8.55;5.07;;;;;;;;;;5072530;28;20111;-59
2023/07/20 07:15:30;;;;;;;9.57;6.15;;;;;;;;;;5053979;28;20561;-59
2023/07/20 07:17:56;;;;;;;26.27;9.73;;;;;;;;;;5049220;28;20404;-58
2023/07/20 07:20:23;;;;;;;15.05;7.20;;;;;;;;;;5034627;28;20032;-60
2023/07/20 07:22:51;;;;;;;14.90;7.40;;;;;;;;;;5052553;28;20028;-61
2023/07/20 07:25:18;;;;;;;15.15;7.35;;;;;;;;;;5051816;28;20041;-58
2023/07/20 07:27:44;;;;;;;14.20;6.82;;;;;;;;;;5034440;28;20404;-58
2023/07/20 07:30:10;;;;;;;14.43;6.80;;;;;;;;;;5052334;28;20032;-62
2023/07/20 07:32:36;;;;;;;13.77;6.80;;;;;;;;;;5052576;28;20053;-60
2023/07/20 07:35:02;;;;;;;17.63;7.68;;;;;;;;;;5051848;28;20065;-58
2023/07/20 07:37:29;;;;;;;15.15;7.13;;;;;;;;;;5051941;28;20021;-59
2023/07/20 07:39:55;;;;;;;14.25;6.80;;;;;;;;;;5052282;28;20033;-59
2023/07/20 07:42:21;;;;;;;13.80;7.28;;;;;;;;;;5052146;28;20075;-60
2023/07/20 07:44:47;;;;;;;13.88;7.00;;;;;;;;;;5036212;28;20020;-60
2023/07/20 07:47:13;;;;;;;14.40;7.10;;;;;;;;;;5071948;28;20020;-59
2023/07/20 07:49:39;;;;;;;13.60;7.13;;;;;;;;;;5071852;28;20025;-57
2023/07/20 07:52:06;;;;;;;15.73;7.28;;;;;;;;;;5071983;28;20029;-60
2023/07/20 07:54:32;;;;;;;14.82;8.27;;;;;;;;;;5070732;28;20016;-60
2023/07/20 07:56:58;;;;;;;14.82;7.25;;;;;;;;;;5071294;28;20498;-61
2023/07/20 07:59:24;;;;;;;15.18;7.90;;;;;;;;;;5065577;28;20024;-61
2023/07/20 08:01:50;;;;;;;14.52;7.70;;;;;;;;;;5056514;28;20033;-60
2023/07/20 08:04:16;;;;;;;14.00;7.88;;;;;;;;;;5050577;28;20031;-60
2023/07/20 08:06:42;;;;;;;14.00;7.50;;;;;;;;;;5051535;28;20017;-60
2023/07/20 08:09:08;;;;;;;13.73;7.90;;;;;;;;;;5033619;28;20535;-59
2023/07/20 08:11:34;;;;;;;14.10;7.70;;;;;;;;;;5051622;28;20071;-62
2023/07/20 08:14:03;;;;;;;13.30;7.05;;;;;;;;;;5051155;28;20028;-60
2023/07/20 08:16:29;;;;;;;15.70;7.30;;;;;;;;;;5051615;28;20409;-61
2023/07/20 08:18:55;;;;;;;14.13;7.40;;;;;;;;;;5052860;28;20442;-60
2023/07/20 08:21:21;;;;;;;16.33;8.25;;;;;;;;;;5067799;28;20029;-61
2023/07/20 08:23:47;;;;;;;13.88;8.00;;;;;;;;;;5069852;28;20043;-59
2023/07/20 08:26:13;;;;;;;15.68;8.77;;;;;;;;;;5070070;28;20021;-60
2023/07/20 08:28:39;;;;;;;15.55;7.55;;;;;;;;;;5070771;28;20025;-60
2023/07/20 08:31:07;;;;;;;14.30;7.85;;;;;;;;;;5070978;28;20158;-54
2023/07/20 08:33:33;;;;;;;13.68;7.45;;;;;;;;;;5071100;28;20024;-59
2023/07/20 08:36:00;;;;;;;14.00;7.97;;;;;;;;;;5070260;28;20025;-61
2023/07/20 08:38:26;;;;;;;14.00;7.50;;;;;;;;;;5070973;28;20449;-60
2023/07/20 08:40:54;;;;;;;14.50;7.72;;;;;;;;;;5071111;28;20138;-61
2023/07/20 08:43:20;;;;;;;13.70;7.57;;;;;;;;;;5071261;28;20031;-61
2023/07/20 08:45:47;;;;;;;14.27;7.32;;;;;;;;;;5070556;28;20024;-60
2023/07/20 08:48:14;;;;;;;13.60;7.38;;;;;;;;;;5051538;28;20040;-55
2023/07/20 08:50:40;;;;;;;13.73;7.13;;;;;;;;;;5051269;28;20036;-52
2023/07/20 08:53:07;;;;;;;14.77;7.25;;;;;;;;;;5050978;28;20421;-54
2023/07/20 08:55:33;;;;;;;13.55;6.95;;;;;;;;;;5049621;28;20013;-52
2023/07/20 08:58:01;;;;;;;13.50;7.45;;;;;;;;;;5049501;28;20017;-54
2023/07/20 09:00:29;;;;;;;13.70;7.45;;;;;;;;;;5050234;28;20032;-53
2023/07/20 09:02:55;;;;;;;13.55;7.25;;;;;;;;;;5050468;28;20033;-54
2023/07/20 09:05:22;;;;;;;14.35;7.75;;;;;;;;;;5049517;28;20039;-52
2023/07/20 09:07:48;;;;;;;13.88;7.32;;;;;;;;;;5032075;28;20179;-55
2023/07/20 09:10:14;;;;;;;15.25;8.05;;;;;;;;;;5050118;28;20497;-52
2023/07/20 09:12:41;;;;;;;14.57;7.97;;;;;;;;;;5032719;28;20535;-52
2023/07/20 09:15:08;;;;;;;14.27;7.97;;;;;;;;;;5051112;28;20028;-56
2023/07/20 09:17:34;;;;;;;15.73;8.05;;;;;;;;;;5036659;28;20071;-49
2023/07/20 09:20:07;;;;;;;14.18;7.70;;;;;;;;;;5054728;28;20024;-55
2023/07/20 09:22:33;;;;;;;14.00;7.88;;;;;;;;;;5054867;28;20029;-54
2023/07/20 09:24:59;;;;;;;13.90;7.60;;;;;;;;;;5053889;28;20017;-52
2023/07/20 09:27:37;;;;;;;14.57;7.50;;;;;;;;;;5054416;28;20108;-49
2023/07/20 09:30:03;;;;;;;15.05;7.40;;;;;;;;;;5053242;28;20045;-51
2023/07/20 09:32:29;;;;;;;14.25;7.60;;;;;;;;;;5054275;28;20025;-50
2023/07/20 09:34:55;;;;;;;13.50;7.35;;;;;;;;;;5053389;28;20024;-53
2023/07/20 09:37:24;;;;;;;13.38;7.53;;;;;;;;;;5054215;28;20032;-54
2023/07/20 09:39:53;;;;;;;15.05;7.82;;;;;;;;;;5054101;28;20017;-53
2023/07/20 09:42:20;;;;;;;13.50;7.65;;;;;;;;;;5036179;28;20025;-57
2023/07/20 09:44:46;;;;;;;14.98;7.75;;;;;;;;;;5053295;28;20032;-53
2023/07/20 09:47:12;;;;;;;15.65;8.38;;;;;;;;;;5065591;28;20039;-54
2023/07/20 09:49:42;;;;;;;13.63;8.15;;;;;;;;;;5056156;28;20024;-51
2023/07/20 09:52:09;;;;;;;15.38;9.10;;;;;;;;;;5074269;28;20392;-52
2023/07/20 09:54:37;;;;;;;14.70;8.55;;;;;;;;;;5073142;28;20024;-52
2023/07/20 09:57:04;;;;;;;13.82;8.40;;;;;;;;;;5073912;28;20017;-54
2023/07/20 09:59:30;;;;;;;14.52;9.18;;;;;;;;;;5073683;28;20024;-54
2023/07/20 10:01:59;;;;;;;15.18;9.30;;;;;;;;;;5074104;28;20100;-53
2023/07/20 10:04:25;;;;;;;15.00;9.10;;;;;;;;;;5072751;28;20024;-49
2023/07/20 10:06:53;;;;;;;14.10;9.10;;;;;;;;;;5073474;28;20025;-55
2023/07/20 10:09:19;;;;;;;14.30;9.63;;;;;;;;;;5073729;28;20443;-50
2023/07/20 10:11:48;;;;;;;14.02;9.52;;;;;;;;;;5074043;28;20021;-52
2023/07/20 10:14:15;;;;;;;14.52;9.70;;;;;;;;;;5072977;28;20393;-54
2023/07/20 10:16:48;;;;;;;14.45;9.23;;;;;;;;;;5073528;28;20082;-52
2023/07/20 10:19:32;;;;;;;14.52;9.85;;;;;;;;;;5073573;28;20013;-52
2023/07/20 10:22:01;;;;;;;14.50;9.80;;;;;;;;;;5073485;28;20277;-53
2023/07/20 10:24:28;;;;;;;14.40;9.60;;;;;;;;;;5054672;28;20020;-51
2023/07/20 10:26:55;;;;;;;14.93;9.52;;;;;;;;;;5073336;28;20029;-52
2023/07/20 10:29:22;;;;;;;15.95;9.77;;;;;;;;;;5073333;28;20031;-54
2023/07/20 10:31:49;;;;;;;15.32;10.80;;;;;;;;;;5073331;28;20389;-51
2023/07/20 10:34:16;;;;;;;15.93;10.23;;;;;;;;;;5072142;28;20028;-53
2023/07/20 10:36:51;;;;;;;14.50;10.70;;;;;;;;;;5072632;28;20058;-52
2023/07/20 10:39:47;;;;;;;15.32;10.23;;;;;;;;;;5072927;28;20017;-55
2023/07/20 10:42:13;;;;;;;15.00;9.88;;;;;;;;;;5053585;28;20036;-58
2023/07/20 10:44:40;;;;;;;14.60;9.77;;;;;;;;;;5072002;28;20059;-52
2023/07/20 10:47:10;;;;;;;14.07;9.68;;;;;;;;;;5073075;28;20024;-53
2023/07/20 10:49:36;;;;;;;14.30;10.05;;;;;;;;;;5072942;28;20622;-54
2023/07/20 10:52:06;;;;;;;14.65;10.02;;;;;;;;;;5072661;28;20419;-53
2023/07/20 10:54:32;;;;;;;14.68;10.20;;;;;;;;;;5071966;28;20071;-54
2023/07/20 10:57:18;;;;;;;15.73;10.65;;;;;;;;;;5055103;28;20017;-47
2023/07/20 10:59:47;;;;;;;15.50;10.48;;;;;;;;;;5072691;28;20043;-54
2023/07/20 11:02:13;;;;;;;15.32;10.30;;;;;;;;;;5072577;28;20032;-50
2023/07/20 11:04:40;;;;;;;14.43;10.40;;;;;;;;;;5072133;28;20035;-52
2023/07/20 11:07:06;;;;;;;15.90;10.00;;;;;;;;;;5072637;28;20062;-51
2023/07/20 11:09:36;;;;;;;15.15;10.00;;;;;;;;;;5054593;28;20503;-55
2023/07/20 11:12:11;;;;;;;14.30;10.10;;;;;;;;;;5072658;28;20028;-53
2023/07/20 11:14:41;;;;;;;14.48;10.40;;;;;;;;;;5072107;28;20427;-51
2023/07/20 11:17:13;;;;;;;16.67;10.13;;;;;;;;;;5072586;28;20021;-54
2023/07/20 11:19:42;;;;;;;14.38;9.80;;;;;;;;;;5072402;28;20021;-52
2023/07/20 11:22:09;;;;;;;14.30;9.95;;;;;;;;;;5054370;28;20047;-56
2023/07/20 11:24:35;;;;;;;14.30;10.32;;;;;;;;;;5071205;28;20038;-56
2023/07/20 11:27:01;;;;;;;15.52;10.80;;;;;;;;;;5072219;28;20032;-57
2023/07/20 11:29:27;;;;;;;14.95;10.43;;;;;;;;;;5071885;28;20032;-54
2023/07/20 11:31:53;;;;;;;16.05;10.73;;;;;;;;;;5071920;28;20384;-56
2023/07/20 11:34:21;;;;;;;15.32;10.57;;;;;;;;;;5052915;28;20369;-54
2023/07/20 11:36:48;;;;;;;14.60;10.82;;;;;;;;;;5071658;28;20025;-52
2023/07/20 11:39:15;;;;;;;15.82;10.98;;;;;;;;;;5071573;28;20104;-54
2023/07/20 11:41:45;;;;;;;14.57;11.07;;;;;;;;;;5072354;28;20028;-51
2023/07/20 11:44:14;;;;;;;15.20;11.20;;;;;;;;;;5068666;28;20555;-50
2023/07/20 11:46:42;;;;;;;15.20;11.00;;;;;;;;;;5066686;28;20074;-51
2023/07/20 11:49:08;;;;;;;14.88;11.50;;;;;;;;;;5070725;28;20027;-57
2023/07/20 11:51:34;;;;;;;15.63;11.57;;;;;;;;;;5071600;28;20381;-55
2023/07/20 11:54:01;;;;;;;15.00;11.85;;;;;;;;;;5070985;28;20024;-50
2023/07/20 11:56:28;;;;;;;15.73;11.77;;;;;;;;;;5071169;28;20385;-52
2023/07/20 11:59:01;;;;;;;15.95;11.50;;;;;;;;;;5071400;28;20107;-55
2023/07/20 12:01:35;;;;;;;15.15;11.77;;;;;;;;;;5071729;28;20033;-51
2023/07/20 12:04:01;;;;;;;15.70;12.10;;;;;;;;;;5070933;28;20078;-54
2023/07/20 12:06:28;;;;;;;15.23;11.90;;;;;;;;;;5071088;28;20021;-49
2023/07/20 12:08:58;;;;;;;16.27;12.82;;;;;;;;;;5071061;28;20040;-52
2023/07/20 12:11:31;;;;;;;14.70;11.55;;;;;;;;;;5071429;28;20630;-51
2023/07/20 12:13:58;;;;;;;14.77;11.48;;;;;;;;;;5070776;28;20040;-55
2023/07/20 12:16:27;;;;;;;17.42;12.25;;;;;;;;;;5066333;28;20095;-51
2023/07/20 12:18:59;;;;;;;15.30;12.30;;;;;;;;;;5070056;28;20020;-51
2023/07/20 12:21:25;;;;;;;14.90;12.30;;;;;;;;;;5071026;28;20024;-50
2023/07/20 12:23:51;;;;;;;15.38;12.13;;;;;;;;;;5071122;28;20020;-54
2023/07/20 12:26:17;;;;;;;15.00;11.82;;;;;;;;;;5070780;28;20518;-54
2023/07/20 12:28:43;;;;;;;15.50;12.10;;;;;;;;;;5071188;28;20037;-54
2023/07/20 12:31:10;;;;;;;15.40;12.30;;;;;;;;;;5071326;28;20270;-53
2023/07/20 12:33:36;;;;;;;15.55;12.68;;;;;;;;;;5071056;28;20024;-50
2023/07/20 12:36:03;;;;;;;15.80;12.50;;;;;;;;;;5070138;28;20036;-50
2023/07/20 12:38:30;;;;;;;15.10;12.30;;;;;;;;;;5070872;28;20025;-49
2023/07/20 12:40:56;;;;;;;15.20;12.33;;;;;;;;;;5070971;28;20082;-50
2023/07/20 12:43:22;;;;;;;15.23;12.32;;;;;;;;;;5070590;28;20299;-55
2023/07/20 12:45:48;;;;;;;16.58;12.55;;;;;;;;;;5070018;28;20505;-55
2023/07/20 12:48:14;;;;;;;15.20;12.30;;;;;;;;;;5050867;28;20028;-54
2023/07/20 12:50:40;;;;;;;15.40;12.68;;;;;;;;;;5050074;28;20055;-53
2023/07/20 12:53:06;;;;;;;15.10;12.23;;;;;;;;;;5050639;28;20029;-51
2023/07/20 12:55:32;;;;;;;16.77;12.52;;;;;;;;;;5050595;28;20030;-55
2023/07/20 12:57:59;;;;;;;15.00;12.27;;;;;;;;;;5053087;28;20029;-51
2023/07/20 13:00:24;;;;;;;15.95;11.98;;;;;;;;;;5037439;28;20078;-54
2023/07/20 13:02:51;;;;;;;15.20;11.88;;;;;;;;;;5052897;28;20029;-52
2023/07/20 13:05:17;;;;;;;15.50;12.20;;;;;;;;;;5051758;28;20027;-51
2023/07/20 13:07:43;;;;;;;15.25;11.98;;;;;;;;;;5051708;28;20036;-55
2023/07/20 13:10:10;;;;;;;14.80;11.68;;;;;;;;;;5050964;28;20029;-55
2023/07/20 13:12:37;;;;;;;14.98;11.70;;;;;;;;;;5051227;28;20461;-55
2023/07/20 13:15:05;;;;;;;15.27;11.90;;;;;;;;;;5050362;28;20116;-54
2023/07/20 13:17:32;;;;;;;15.30;12.38;;;;;;;;;;5050504;28;20513;-54
2023/07/20 13:19:58;;;;;;;15.70;11.98;;;;;;;;;;5050711;28;20499;-57
2023/07/20 13:22:23;;;;;;;14.88;11.50;;;;;;;;;;5032586;28;20032;-57
2023/07/20 13:24:50;;;;;;;14.90;11.65;;;;;;;;;;5032053;28;20028;-52
2023/07/20 13:27:16;;;;;;;15.25;11.80;;;;;;;;;;5050626;28;20032;-54
2023/07/20 13:29:43;;;;;;;15.00;12.18;;;;;;;;;;5056779;28;20091;-51
2023/07/20 13:32:09;;;;;;;15.02;11.90;;;;;;;;;;5069606;28;20028;-53
2023/07/20 13:34:35;;;;;;;15.77;12.00;;;;;;;;;;5037883;28;20397;-56
2023/07/20 13:37:02;;;;;;;15.20;12.00;;;;;;;;;;5044332;28;20477;-56
2023/07/20 13:39:28;;;;;;;15.30;12.05;;;;;;;;;;5050867;28;20036;-51
2023/07/20 13:41:54;;;;;;;15.05;12.27;;;;;;;;;;5035447;28;20356;-56
2023/07/20 13:44:20;;;;;;;15.13;12.02;;;;;;;;;;5069082;28;20021;-53
2023/07/20 13:46:50;;;;;;;15.95;12.20;;;;;;;;;;5070580;28;20028;-50
2023/07/20 13:49:16;;;;;;;15.50;12.30;;;;;;;;;;5067585;28;20396;-55
2023/07/20 13:51:43;;;;;;;15.30;12.48;;;;;;;;;;5052979;28;20082;-51
2023/07/20 13:54:09;;;;;;;18.00;12.23;;;;;;;;;;5070278;28;20021;-50
2023/07/20 13:56:35;;;;;;;15.50;13.25;;;;;;;;;;5070683;28;20077;-54
2023/07/20 13:59:01;;;;;;;15.60;12.60;;;;;;;;;;4697657;28;9999755;-52
2023/07/20 14:01:28;;;;;;;15.05;12.25;;;;;;;;;;5053081;28;20033;-54
2023/07/20 14:03:54;;;;;;;15.05;12.07;;;;;;;;;;5050260;28;20041;-51
2023/07/20 14:06:21;;;;;;;15.25;12.63;;;;;;;;;;5060969;28;20024;-56
2023/07/20 14:08:48;;;;;;;15.48;12.68;;;;;;;;;;5036406;28;20115;-55
2023/07/20 14:11:14;;;;;;;15.00;11.90;;;;;;;;;;5049915;28;20052;-54
2023/07/20 14:13:40;;;;;;;15.98;12.70;;;;;;;;;;5032134;28;20422;-52
2023/07/20 14:16:07;;;;;;;16.00;12.35;;;;;;;;;;4708820;28;10000147;-54
2023/07/20 14:18:33;;;;;;;15.20;11.90;;;;;;;;;;5070200;28;20100;-56
2023/07/20 14:20:59;;;;;;;17.38;13.73;;;;;;;;;;5070741;28;20124;-53